Time;durP1;ratioP1;P1;durP2;ratioP2;P2;SDS_P1;SDS_P2;PMS_P1;PMS_P2;Temp;Humidity;BMP_temperature;BMP_pressure;BME280_temperature;BME280_humidity;BME280_pressure;Samples;Min_cycle;Max_cycle;Signal;HPM_P1;HPM_P2
2021/09/12 00:01:57;;;;;;;43.70;41.30;;;;;;;14.96;100.00;101824.33;1971821;72;33583;-71
2021/09/12 00:07:21;;;;;;;42.93;40.43;;;;;;;14.91;100.00;101826.60;1971663;73;33010;-70
2021/09/12 00:12:46;;;;;;;42.87;40.57;;;;;;;14.86;100.00;101818.23;1971646;73;32954;-70
2021/09/12 00:18:11;;;;;;;44.63;42.13;;;;;;;14.94;100.00;101820.41;1971777;73;33074;-70
2021/09/12 00:23:35;;;;;;;46.93;44.40;;;;;;;14.62;100.00;101829.03;1971877;73;33363;-70
2021/09/12 00:29:00;;;;;;;42.93;40.63;;;;;;;14.57;100.00;101833.53;1971917;73;33007;-70
2021/09/12 00:34:25;;;;;;;42.67;40.27;;;;;;;14.59;100.00;101827.63;1971879;73;33418;-71
2021/09/12 00:39:49;;;;;;;44.00;41.23;;;;;;;14.71;100.00;101818.35;1971665;73;32995;-70
2021/09/12 00:45:15;;;;;;;43.27;40.97;;;;;;;14.70;100.00;101817.23;1971820;73;32970;-70
2021/09/12 00:50:41;;;;;;;44.77;42.20;;;;;;;14.57;100.00;101822.91;1971898;73;32964;-70
2021/09/12 00:56:07;;;;;;;42.50;40.00;;;;;;;14.54;100.00;101824.89;1971663;73;32914;-70
2021/09/12 01:01:35;;;;;;;42.00;39.60;;;;;;;14.48;100.00;101829.66;1971853;73;33484;-71
2021/09/12 01:07:00;;;;;;;42.80;40.30;;;;;;;14.36;100.00;101837.55;1971668;73;33003;-70
2021/09/12 01:12:46;;;;;;;39.97;37.57;;;;;;;14.69;100.00;101839.33;2015951;71;32925;-71
2021/09/12 01:18:16;;;;;;;40.03;37.63;;;;;;;14.79;100.00;101830.88;1971772;73;32911;-71
2021/09/12 01:23:41;;;;;;;39.50;37.30;;;;;;;14.81;100.00;101830.02;1971682;73;32970;-71
2021/09/12 01:29:06;;;;;;;39.87;37.37;;;;;;;14.83;100.00;101832.81;1971633;73;32966;-71
2021/09/12 01:34:50;;;;;;;39.80;37.50;;;;;;;14.97;100.00;101825.42;2015863;71;32928;-71
2021/09/12 01:40:15;;;;;;;41.33;39.03;;;;;;;14.78;100.00;101823.61;1971817;73;32996;-70
2021/09/12 01:45:41;;;;;;;40.70;38.50;;;;;;;14.99;100.00;101821.78;1971772;73;33014;-70
2021/09/12 01:51:06;;;;;;;41.33;38.83;;;;;;;14.78;100.00;101821.65;1971694;73;32922;-70
2021/09/12 01:56:30;;;;;;;42.23;39.83;;;;;;;14.64;100.00;101823.41;1971847;73;33427;-70
2021/09/12 02:01:55;;;;;;;42.57;40.07;;;;;;;14.81;100.00;101825.82;1971657;73;32991;-70
2021/09/12 02:07:19;;;;;;;42.37;39.67;;;;;;;14.74;100.00;101827.55;1971650;73;32913;-70
2021/09/12 02:12:44;;;;;;;42.03;39.60;;;;;;;14.66;100.00;101823.13;1971685;73;33015;-70
2021/09/12 02:18:08;;;;;;;39.93;37.63;;;;;;;14.80;100.00;101829.77;1971751;73;33039;-70
2021/09/12 02:23:33;;;;;;;40.00;37.77;;;;;;;14.81;100.00;101836.45;1971854;73;33474;-70
2021/09/12 02:29:03;;;;;;;41.17;38.77;;;;;;;14.87;100.00;101840.06;1971810;73;33030;-70
2021/09/12 02:34:28;;;;;;;40.33;38.13;;;;;;;14.88;100.00;101834.74;1971835;73;33535;-74
2021/09/12 02:39:53;;;;;;;42.40;39.80;;;;;;;14.90;100.00;101826.32;1971656;73;33008;-72
2021/09/12 02:45:18;;;;;;;42.60;40.10;;;;;;;15.03;100.00;101833.22;1971905;73;33352;-70
2021/09/12 02:50:43;;;;;;;41.20;38.70;;;;;;;15.01;100.00;101841.93;1971871;73;33492;-70
2021/09/12 02:56:08;;;;;;;41.43;39.10;;;;;;;15.17;100.00;101834.23;1971660;73;33111;-71
2021/09/12 03:01:32;;;;;;;40.97;38.30;;;;;;;15.14;100.00;101832.03;1971816;73;32901;-70
2021/09/12 03:06:57;;;;;;;41.67;39.07;;;;;;;15.23;100.00;101833.05;1971710;73;33035;-70
2021/09/12 03:12:21;;;;;;;41.20;38.80;;;;;;;15.14;100.00;101835.39;1972005;73;32891;-71
2021/09/12 03:17:46;;;;;;;39.43;36.83;;;;;;;15.11;100.00;101832.59;1971682;73;33036;-70
2021/09/12 03:23:10;;;;;;;40.10;37.30;;;;;;;15.09;100.00;101837.67;1971822;73;32921;-72
2021/09/12 03:28:35;;;;;;;40.53;37.90;;;;;;;14.87;100.00;101833.91;1971853;73;33482;-70
2021/09/12 03:33:59;;;;;;;40.60;38.00;;;;;;;14.77;100.00;101832.56;1971719;73;32992;-74
2021/09/12 03:39:24;;;;;;;41.50;38.93;;;;;;;14.87;100.00;101835.30;1971809;73;33587;-71
2021/09/12 03:44:48;;;;;;;41.20;38.60;;;;;;;14.92;100.00;101832.47;1971829;73;33360;-70
2021/09/12 03:50:13;;;;;;;40.13;37.57;;;;;;;14.99;100.00;101833.53;1971703;73;32997;-70
2021/09/12 03:55:38;;;;;;;41.07;38.17;;;;;;;15.06;100.00;101843.83;1971893;73;33371;-70
2021/09/12 04:01:02;;;;;;;39.63;37.13;;;;;;;14.79;100.00;101840.67;1945612;73;39807;-70
2021/09/12 04:06:27;;;;;;;42.07;39.17;;;;;;;14.86;100.00;101835.02;1971855;73;32991;-71
2021/09/12 04:11:51;;;;;;;41.20;38.33;;;;;;;15.02;100.00;101836.58;1971679;73;32928;-70
2021/09/12 04:17:16;;;;;;;41.57;38.67;;;;;;;14.96;100.00;101840.56;1971871;73;33439;-70
2021/09/12 04:22:40;;;;;;;42.47;39.27;;;;;;;14.86;100.00;101845.38;1971767;73;33555;-70
2021/09/12 04:28:06;;;;;;;41.60;38.70;;;;;;;14.78;100.00;101847.39;1971936;73;32895;-71
2021/09/12 04:33:31;;;;;;;40.90;38.13;;;;;;;14.80;100.00;101852.14;1971674;73;33081;-72
2021/09/12 04:38:56;;;;;;;41.37;38.27;;;;;;;14.75;100.00;101850.77;1971675;73;32980;-70
2021/09/12 04:44:20;;;;;;;41.30;38.60;;;;;;;14.55;100.00;101849.74;1971690;73;32988;-71
2021/09/12 04:49:45;;;;;;;42.27;39.20;;;;;;;14.36;100.00;101854.33;1971737;73;33039;-71
2021/09/12 04:55:11;;;;;;;41.30;38.53;;;;;;;14.44;100.00;101858.48;1971848;73;33507;-70
2021/09/12 05:00:35;;;;;;;42.03;39.30;;;;;;;14.19;100.00;101866.38;1971662;73;32910;-70
2021/09/12 05:06:00;;;;;;;40.67;37.77;;;;;;;14.06;100.00;101867.81;1971666;73;33062;-70
2021/09/12 05:11:25;;;;;;;41.63;38.70;;;;;;;14.01;100.00;101868.38;1971904;73;33023;-70
2021/09/12 05:16:52;;;;;;;41.17;38.43;;;;;;;14.11;100.00;101857.19;1971841;73;33538;-70
2021/09/12 05:22:16;;;;;;;42.87;39.77;;;;;;;14.05;100.00;101863.90;1963733;71;33500;-70
2021/09/12 05:27:41;;;;;;;43.57;40.77;;;;;;;14.12;100.00;101870.02;1971927;73;32925;-70
2021/09/12 05:33:06;;;;;;;44.37;41.03;;;;;;;13.91;100.00;101869.23;1971885;73;33480;-73
2021/09/12 05:38:33;;;;;;;44.43;41.30;;;;;;;13.96;100.00;101876.21;1971605;73;33013;-72
2021/09/12 05:43:58;;;;;;;46.47;43.10;;;;;;;14.05;100.00;101873.12;1971670;73;32930;-70
2021/09/12 05:49:23;;;;;;;47.60;44.43;;;;;;;14.03;100.00;101877.33;1971643;73;33033;-70
2021/09/12 05:54:48;;;;;;;47.60;44.30;;;;;;;13.94;100.00;101877.63;1971913;73;33479;-70
2021/09/12 06:00:14;;;;;;;44.13;41.03;;;;;;;13.96;100.00;101879.56;1971732;73;33056;-73
2021/09/12 06:05:42;;;;;;;45.77;42.47;;;;;;;13.98;100.00;101886.56;1971781;73;33006;-79
2021/09/12 06:11:10;;;;;;;45.93;42.73;;;;;;;14.17;100.00;101890.95;1971776;73;33055;-72
2021/09/12 06:16:34;;;;;;;44.37;41.37;;;;;;;14.28;100.00;101904.36;1971952;73;32949;-74
2021/09/12 06:22:01;;;;;;;42.97;40.20;;;;;;;14.47;100.00;101906.27;1956694;72;33061;-73
2021/09/12 06:27:26;;;;;;;42.30;39.40;;;;;;;14.42;100.00;101911.87;1971667;73;32934;-76
2021/09/12 06:32:52;;;;;;;44.50;41.70;;;;;;;14.58;100.00;101914.06;1971634;73;33122;-72
2021/09/12 06:38:16;;;;;;;45.23;42.23;;;;;;;14.68;100.00;101917.35;1972062;73;32957;-71
2021/09/12 06:43:41;;;;;;;42.50;39.90;;;;;;;14.88;100.00;101919.52;1971937;73;32911;-71
2021/09/12 06:49:08;;;;;;;42.37;39.57;;;;;;;15.00;100.00;101920.00;1971839;73;32948;-75
2021/09/12 06:54:34;;;;;;;43.43;40.63;;;;;;;14.96;100.00;101917.50;1971811;73;33002;-71
2021/09/12 06:59:59;;;;;;;43.27;40.37;;;;;;;15.00;100.00;101919.16;1971835;73;33044;-72
2021/09/12 07:05:24;;;;;;;43.93;41.10;;;;;;;15.03;100.00;101915.21;1971861;73;33545;-71
2021/09/12 07:10:48;;;;;;;44.23;41.23;;;;;;;15.19;100.00;101918.73;1971602;73;32918;-72
2021/09/12 07:16:13;;;;;;;43.43;40.53;;;;;;;15.20;100.00;101920.41;1971874;73;33477;-76
2021/09/12 07:21:38;;;;;;;42.33;39.53;;;;;;;15.36;100.00;101923.97;1961234;73;33533;-77
2021/09/12 07:27:03;;;;;;;41.10;38.30;;;;;;;15.37;100.00;101922.25;1971663;73;32921;-79
2021/09/12 07:32:27;;;;;;;41.77;38.87;;;;;;;15.57;100.00;101920.47;1971608;73;32900;-80
2021/09/12 07:37:52;;;;;;;42.53;39.77;;;;;;;15.85;100.00;101911.23;1971833;72;33545;-72
2021/09/12 07:43:16;;;;;;;41.80;38.90;;;;;;;15.94;100.00;101922.09;1971592;72;32910;-79
2021/09/12 07:48:41;;;;;;;43.67;40.73;;;;;;;15.98;100.00;101911.95;1971847;73;33482;-79
2021/09/12 07:54:05;;;;;;;41.40;38.50;;;;;;;16.25;100.00;101919.80;1971885;73;32995;-76
2021/09/12 07:59:30;;;;;;;42.73;39.83;;;;;;;16.49;100.00;101916.42;1971814;73;33537;-80
2021/09/12 08:04:55;;;;;;;42.83;39.93;;;;;;;16.31;100.00;101927.84;1971889;73;33494;-73
2021/09/12 08:10:19;;;;;;;43.77;40.87;;;;;;;16.55;100.00;101926.46;1971854;73;33500;-75
2021/09/12 08:15:44;;;;;;;45.50;42.77;;;;;;;16.50;100.00;101930.72;1971640;73;32988;-71
2021/09/12 08:21:08;;;;;;;45.17;42.13;;;;;;;16.66;100.00;101927.19;1969830;71;33444;-78
2021/09/12 08:26:33;;;;;;;48.00;44.70;;;;;;;16.74;100.00;101928.76;1971805;73;32985;-77
2021/09/12 08:31:58;;;;;;;46.60;43.60;;;;;;;17.09;100.00;101916.77;1971724;73;33005;-72
2021/09/12 08:37:22;;;;;;;45.63;42.83;;;;;;;17.05;100.00;101919.36;1971891;72;32945;-72
2021/09/12 08:42:48;;;;;;;46.37;43.43;;;;;;;16.88;100.00;101923.81;1971745;73;33000;-77
2021/09/12 08:48:14;;;;;;;44.03;41.23;;;;;;;17.62;100.00;101935.64;1971729;73;31039;-77
2021/09/12 08:53:39;;;;;;;43.37;40.73;;;;;;;17.53;100.00;101943.06;1971772;72;31032;-77
2021/09/12 08:59:04;;;;;;;42.73;40.13;;;;;;;17.88;100.00;101947.30;1971798;72;33387;-70
2021/09/12 09:04:31;;;;;;;42.40;39.87;;;;;;;17.75;100.00;101950.33;1971914;73;33516;-70
2021/09/12 09:09:58;;;;;;;42.43;39.93;;;;;;;17.95;100.00;101944.91;1971677;73;33162;-71
2021/09/12 09:15:25;;;;;;;45.67;43.13;;;;;;;18.14;100.00;101941.48;1971753;72;31031;-77
2021/09/12 09:20:50;;;;;;;43.80;41.17;;;;;;;18.03;100.00;101943.62;1971815;73;33434;-79
2021/09/12 09:26:22;;;;;;;43.60;40.90;;;;;;;18.28;100.00;101946.53;1971694;73;30987;-71
2021/09/12 09:32:02;;;;;;;44.30;41.60;;;;;;;18.26;100.00;101946.02;1971825;73;31078;-70
2021/09/12 09:37:33;;;;;;;43.77;41.13;;;;;;;18.29;100.00;101949.61;1971651;73;31082;-70
2021/09/12 09:42:58;;;;;;;40.80;38.13;;;;;;;18.22;100.00;101946.95;1972374;73;31486;-79
2021/09/12 09:48:23;;;;;;;43.43;40.93;;;;;;;18.12;100.00;101949.38;1972390;73;31031;-79
2021/09/12 09:53:49;;;;;;;43.00;40.40;;;;;;;18.45;100.00;101952.95;1971910;73;31434;-70
2021/09/12 09:59:16;;;;;;;41.37;38.77;;;;;;;18.52;100.00;101951.98;1971705;73;30953;-69
2021/09/12 10:04:43;;;;;;;42.03;39.63;;;;;;;18.64;100.00;101947.54;1971757;73;31111;-78
2021/09/12 10:10:12;;;;;;;42.67;40.23;;;;;;;18.52;100.00;101942.14;1971914;72;31341;-78
2021/09/12 10:15:44;;;;;;;38.60;36.20;;;;;;;18.60;100.00;101929.61;1971774;73;32913;-71
2021/09/12 10:21:28;;;;;;;38.33;35.80;;;;;;;18.77;100.00;101927.56;1972425;73;31515;-82
2021/09/12 10:26:57;;;;;;;37.77;35.47;;;;;;;19.04;100.00;101928.91;1971960;73;31060;-70
2021/09/12 10:32:41;;;;;;;34.03;31.93;;;;;;;19.34;100.00;101916.70;1971941;73;31531;-77
2021/09/12 10:38:12;;;;;;;33.33;31.43;;;;;;;19.47;100.00;101907.37;1971829;72;31420;-70
2021/09/12 10:44:16;;;;;;;33.23;31.23;;;;;;;19.37;100.00;101902.80;1971975;73;33488;-70
2021/09/12 10:49:43;;;;;;;30.70;28.80;;;;;;;19.51;100.00;101889.50;1971766;73;31039;-76
2021/09/12 10:52:35;;;;;;;33.20;31.20;;;;;;;19.42;100.00;101903.26;1934563;74;24256;-70
2021/09/12 10:58:04;;;;;;;29.83;28.13;;;;;;;19.72;100.00;101888.42;1972006;73;33375;-76
2021/09/12 11:03:30;;;;;;;28.07;26.67;;;;;;;20.00;100.00;101874.97;1971914;73;30957;-70
2021/09/12 11:08:59;;;;;;;27.30;25.80;;;;;;;20.15;100.00;101873.13;1971967;73;31573;-70
2021/09/12 11:14:24;;;;;;;28.03;26.60;;;;;;;20.23;100.00;101874.34;1971927;73;31006;-76
2021/09/12 11:19:58;;;;;;;26.63;25.23;;;;;;;20.30;100.00;101873.31;1971953;73;30931;-70
2021/09/12 11:25:25;;;;;;;25.57;24.17;;;;;;;20.24;100.00;101875.98;1972005;73;31450;-70
2021/09/12 11:30:59;;;;;;;28.93;27.37;;;;;;;20.43;100.00;101866.72;1971897;72;33008;-77
2021/09/12 11:36:48;;;;;;;27.13;25.83;;;;;;;20.60;100.00;101870.17;1971758;73;30967;-69
2021/09/12 11:42:18;;;;;;;36.83;35.23;;;;;;;20.77;100.00;101863.98;1971702;73;30954;-79
2021/09/12 11:47:45;;;;;;;36.40;34.80;;;;;;;21.02;100.00;101866.59;1971826;73;30936;-77
2021/09/12 11:53:13;;;;;;;28.77;27.57;;;;;;;20.86;100.00;101863.42;1971831;73;30970;-70
2021/09/12 11:58:39;;;;;;;27.13;25.83;;;;;;;21.09;100.00;101860.45;1972413;73;31066;-78
2021/09/12 12:04:06;;;;;;;24.10;23.10;;;;;;;20.89;100.00;101869.81;1971766;73;30957;-76
2021/09/12 12:09:42;;;;;;;29.07;27.83;;;;;;;20.78;100.00;101870.47;1971908;73;31048;-77
2021/09/12 12:15:35;;;;;;;30.87;29.57;;;;;;;20.69;100.00;101870.45;2014438;71;30877;-77
2021/09/12 12:21:15;;;;;;;26.80;25.70;;;;;;;20.59;100.00;101864.27;1971867;72;31004;-70
2021/09/12 12:26:47;;;;;;;31.50;30.07;;;;;;;20.74;100.00;101863.24;1971871;73;31000;-70
2021/09/12 12:32:23;;;;;;;28.97;27.67;;;;;;;20.64;100.00;101867.78;1972027;73;30968;-76
2021/09/12 12:37:49;;;;;;;27.80;26.50;;;;;;;20.61;100.00;101869.85;1972042;73;30963;-69
2021/09/12 12:43:19;;;;;;;28.80;27.50;;;;;;;20.65;100.00;101877.92;1971867;73;30961;-69
2021/09/12 12:48:47;;;;;;;24.70;23.50;;;;;;;20.73;100.00;101872.03;1971767;73;30983;-78
2021/09/12 12:54:20;;;;;;;27.70;26.30;;;;;;;20.93;100.00;101872.80;1972404;73;31479;-81
2021/09/12 12:59:50;;;;;;;25.83;24.53;;;;;;;20.79;100.00;101873.55;1971819;73;30977;-71
2021/09/12 13:05:15;;;;;;;30.13;28.73;;;;;;;20.76;100.00;101878.42;1972383;73;31169;-80
2021/09/12 13:10:41;;;;;;;26.40;25.10;;;;;;;20.54;100.00;101884.20;1971851;73;31019;-70
2021/09/12 13:16:06;;;;;;;27.37;25.97;;;;;;;20.83;100.00;101881.03;1972126;73;31492;-70
2021/09/12 13:21:33;;;;;;;27.10;25.80;;;;;;;21.07;100.00;101867.84;1972431;73;30946;-81
2021/09/12 13:26:58;;;;;;;29.57;28.17;;;;;;;20.76;100.00;101873.61;1971977;73;31470;-81
2021/09/12 13:32:22;;;;;;;28.03;26.63;;;;;;;20.47;100.00;101871.13;1972028;73;31034;-77
2021/09/12 13:37:48;;;;;;;27.80;26.50;;;;;;;20.44;100.00;101872.05;1972003;73;31481;-78
2021/09/12 13:43:13;;;;;;;25.60;24.40;;;;;;;20.55;100.00;101871.73;1971951;73;33513;-71
2021/09/12 13:48:44;;;;;;;26.17;24.90;;;;;;;20.83;100.00;101858.45;1971828;73;31071;-76
2021/09/12 13:54:08;;;;;;;24.17;22.97;;;;;;;20.92;100.00;101851.97;1972066;73;31583;-76
2021/09/12 13:59:34;;;;;;;24.30;23.00;;;;;;;20.76;100.00;101860.07;1972041;73;30972;-70
2021/09/12 14:05:18;;;;;;;23.17;21.97;;;;;;;20.83;100.00;101851.95;2016030;71;30953;-77
2021/09/12 14:11:02;;;;;;;23.33;22.13;;;;;;;20.95;100.00;101849.89;2016098;71;31398;-78
2021/09/12 14:16:27;;;;;;;23.53;22.33;;;;;;;20.86;100.00;101847.89;1971817;73;30971;-79
2021/09/12 14:21:51;;;;;;;23.22;22.05;;;;;;;21.00;100.00;101847.74;1958475;73;31180;-78
2021/09/12 14:27:16;;;;;;;24.65;23.32;;;;;;;21.09;100.00;101837.86;1971777;73;31115;-77
2021/09/12 14:32:43;;;;;;;22.22;21.10;;;;;;;21.27;100.00;101843.19;1972186;73;30962;-81
2021/09/12 14:38:13;;;;;;;22.83;21.63;;;;;;;21.10;100.00;101829.61;1940832;74;31119;-74
2021/09/12 14:43:39;;;;;;;23.77;22.63;;;;;;;21.36;100.00;101823.39;1971887;73;31473;-76
2021/09/12 14:49:03;;;;;;;22.40;21.40;;;;;;;21.53;100.00;101828.17;1971695;72;30968;-75
2021/09/12 14:54:27;;;;;;;25.30;24.02;;;;;;;21.27;100.00;101820.57;1971645;72;30976;-71
2021/09/12 14:59:52;;;;;;;26.70;25.30;;;;;;;21.11;100.00;101821.38;1971713;73;31051;-80
2021/09/12 15:05:17;;;;;;;27.73;26.33;;;;;;;20.84;100.00;101824.78;1972000;73;31004;-79
2021/09/12 15:10:42;;;;;;;27.40;26.00;;;;;;;20.72;100.00;101823.77;1971772;73;31085;-79
2021/09/12 15:16:07;;;;;;;29.17;27.67;;;;;;;20.82;100.00;101817.23;1971878;73;31026;-70
2021/09/12 15:21:32;;;;;;;27.13;25.83;;;;;;;20.74;100.00;101828.52;1971946;73;31529;-80
2021/09/12 15:26:56;;;;;;;29.87;28.27;;;;;;;20.77;100.00;101826.44;1972069;73;31513;-73
2021/09/12 15:32:21;;;;;;;26.60;25.30;;;;;;;20.58;100.00;101822.49;1971916;73;30965;-70
2021/09/12 15:37:46;;;;;;;29.33;27.83;;;;;;;20.54;100.00;101819.28;1971852;73;31015;-79
2021/09/12 15:43:11;;;;;;;29.03;27.53;;;;;;;20.44;100.00;101821.82;1971964;73;31448;-79
2021/09/12 15:48:35;;;;;;;29.57;27.97;;;;;;;20.24;100.00;101811.92;1971882;73;31101;-70
2021/09/12 15:54:00;;;;;;;29.40;27.60;;;;;;;20.27;100.00;101816.93;1971968;73;31400;-79
2021/09/12 15:59:25;;;;;;;29.03;27.43;;;;;;;20.32;100.00;101808.32;1971742;73;31112;-79
2021/09/12 16:04:50;;;;;;;28.90;27.40;;;;;;;20.33;100.00;101803.52;1971719;73;30942;-70
2021/09/12 16:10:15;;;;;;;29.97;28.13;;;;;;;20.39;100.00;101804.45;1971980;73;30931;-70
2021/09/12 16:15:42;;;;;;;29.53;28.03;;;;;;;20.44;100.00;101803.47;1971875;73;31011;-79
2021/09/12 16:21:07;;;;;;;28.53;26.97;;;;;;;20.49;100.00;101797.68;1967431;73;31430;-70
2021/09/12 16:26:32;;;;;;;28.30;26.83;;;;;;;20.40;100.00;101789.20;1971750;73;31020;-69
2021/09/12 16:32:03;;;;;;;27.87;26.57;;;;;;;20.34;100.00;101785.43;1972325;72;30927;-75
2021/09/12 16:37:28;;;;;;;28.83;27.43;;;;;;;20.31;100.00;101777.62;1971935;73;31443;-68
2021/09/12 16:42:55;;;;;;;29.20;27.70;;;;;;;20.33;100.00;101780.36;1971805;73;31011;-72
2021/09/12 16:48:19;;;;;;;28.60;27.13;;;;;;;20.54;100.00;101779.76;1971631;73;31017;-72
2021/09/12 16:53:44;;;;;;;29.30;27.77;;;;;;;20.46;100.00;101775.73;1971654;73;30943;-70
2021/09/12 16:59:08;;;;;;;29.43;27.93;;;;;;;20.51;100.00;101768.52;1971831;73;31414;-69
2021/09/12 17:04:36;;;;;;;29.47;27.97;;;;;;;20.21;100.00;101775.91;1971613;73;31029;-71
2021/09/12 17:10:02;;;;;;;30.77;29.23;;;;;;;20.06;100.00;101769.32;1971844;73;30948;-81
2021/09/12 17:15:26;;;;;;;31.10;29.50;;;;;;;20.06;100.00;101761.43;1971719;73;30931;-81
2021/09/12 17:20:51;;;;;;;30.57;28.97;;;;;;;20.10;100.00;101774.55;1970174;73;31465;-70
2021/09/12 17:26:14;;;;;;;30.60;29.07;;;;;;;19.89;100.00;101769.25;1940825;74;31036;-79
2021/09/12 17:31:38;;;;;;;30.77;29.27;;;;;;;19.84;100.00;101777.85;1940835;74;31161;-69
2021/09/12 17:37:03;;;;;;;31.17;29.57;;;;;;;19.79;100.00;101771.78;1941182;74;31494;-69
2021/09/12 17:42:34;;;;;;;30.10;28.60;;;;;;;19.93;100.00;101774.50;1941457;74;31138;-78
2021/09/12 17:47:59;;;;;;;31.47;29.80;;;;;;;20.10;100.00;101772.31;1940889;74;31098;-75
2021/09/12 17:53:46;;;;;;;29.70;28.20;;;;;;;19.80;100.00;101774.02;2005518;71;30875;-74
2021/09/12 17:59:10;;;;;;;29.13;27.53;;;;;;;19.64;100.00;101780.64;1940721;74;31161;-71
2021/09/12 18:04:35;;;;;;;28.70;27.20;;;;;;;19.62;100.00;101780.73;1941163;74;31512;-69
2021/09/12 18:09:59;;;;;;;31.37;29.77;;;;;;;19.34;100.00;101782.27;1941000;74;31517;-69
2021/09/12 18:15:24;;;;;;;29.93;28.43;;;;;;;19.19;100.00;101783.24;1940954;74;31023;-76
2021/09/12 18:20:48;;;;;;;28.73;27.27;;;;;;;19.42;100.00;101784.91;1940961;74;33504;-80
2021/09/12 18:26:13;;;;;;;30.10;28.40;;;;;;;19.30;100.00;101786.88;1940984;74;31033;-76
2021/09/12 18:31:39;;;;;;;28.70;27.30;;;;;;;19.01;100.00;101793.55;1941036;74;31111;-76
2021/09/12 18:37:11;;;;;;;28.83;27.43;;;;;;;19.04;100.00;101793.73;1941232;74;31017;-76
2021/09/12 18:42:36;;;;;;;29.70;28.10;;;;;;;18.86;100.00;101798.98;1940973;74;31100;-70
2021/09/12 18:48:03;;;;;;;29.83;28.20;;;;;;;18.72;100.00;101802.98;1940812;74;31194;-69
2021/09/12 18:53:27;;;;;;;28.83;27.23;;;;;;;18.58;100.00;101803.84;1940769;74;31030;-76
2021/09/12 18:58:52;;;;;;;36.60;34.80;;;;;;;18.34;100.00;101816.47;1941106;74;31548;-76
2021/09/12 19:04:16;;;;;;;39.23;37.13;;;;;;;18.31;100.00;101819.34;1940950;74;31456;-71
2021/09/12 19:10:00;;;;;;;41.10;39.00;;;;;;;18.30;100.00;101833.14;2009573;71;30979;-70
2021/09/12 19:15:25;;;;;;;41.80;39.63;;;;;;;18.10;100.00;101837.19;1941063;74;31083;-70
2021/09/12 19:20:50;;;;;;;42.30;40.10;;;;;;;18.08;100.00;101835.28;1940840;74;31059;-71
2021/09/12 19:26:14;;;;;;;42.17;39.87;;;;;;;18.17;100.00;101845.23;1940942;74;31053;-70
2021/09/12 19:31:38;;;;;;;39.47;37.00;;;;;;;18.06;100.00;101848.80;1940947;74;31026;-72
2021/09/12 19:37:03;;;;;;;42.10;39.90;;;;;;;18.22;100.00;101852.73;1941027;74;33714;-71
2021/09/12 19:42:27;;;;;;;41.37;39.27;;;;;;;18.36;100.00;101852.97;1940948;74;31159;-72
2021/09/12 19:47:52;;;;;;;41.93;39.67;;;;;;;18.44;100.00;101861.27;1940904;74;31130;-72
2021/09/12 19:53:17;;;;;;;43.17;40.97;;;;;;;18.43;100.00;101866.06;1940880;74;31184;-73
2021/09/12 19:58:41;;;;;;;42.57;40.47;;;;;;;18.44;100.00;101872.53;1941019;74;31124;-73
2021/09/12 20:04:06;;;;;;;41.00;38.80;;;;;;;18.66;100.00;101878.25;1940838;74;31059;-77
2021/09/12 20:09:31;;;;;;;43.23;41.03;;;;;;;18.65;100.00;101876.00;1940903;74;31157;-75
2021/09/12 20:14:55;;;;;;;44.23;41.93;;;;;;;18.55;100.00;101885.26;1941096;74;31138;-73
2021/09/12 20:20:19;;;;;;;44.90;42.60;;;;;;;18.42;100.00;101881.84;1940839;74;31145;-69
2021/09/12 20:25:46;;;;;;;44.47;42.03;;;;;;;18.34;100.00;101888.20;1940893;74;31111;-68
2021/09/12 20:31:10;;;;;;;38.20;36.00;;;;;;;18.27;100.00;101887.19;1941029;74;31052;-72
2021/09/12 20:36:35;;;;;;;39.67;37.37;;;;;;;18.47;100.00;101876.95;1940833;74;31036;-68
2021/09/12 20:42:01;;;;;;;37.33;35.13;;;;;;;18.30;100.00;101880.97;1940866;74;31142;-72
2021/09/12 20:47:26;;;;;;;39.73;37.43;;;;;;;18.41;100.00;101879.59;1940844;74;31046;-75
2021/09/12 20:52:51;;;;;;;36.77;34.57;;;;;;;18.43;100.00;101880.70;1940818;74;31033;-73
2021/09/12 20:58:15;;;;;;;37.93;35.87;;;;;;;18.41;100.00;101890.84;1940789;74;31098;-73
2021/09/12 21:03:39;;;;;;;40.00;37.60;;;;;;;18.28;100.00;101893.66;1940836;74;31079;-72
2021/09/12 21:09:04;;;;;;;42.30;39.80;;;;;;;18.09;100.00;101895.17;1940955;74;33583;-74
2021/09/12 21:14:28;;;;;;;43.17;40.67;;;;;;;18.05;100.00;101894.96;1941027;74;31544;-75
2021/09/12 21:19:54;;;;;;;40.17;37.87;;;;;;;17.93;100.00;101889.55;1940931;74;33113;-73
2021/09/12 21:25:19;;;;;;;39.00;36.47;;;;;;;17.77;100.00;101890.41;1941094;74;31205;-71
2021/09/12 21:30:45;;;;;;;38.83;36.33;;;;;;;17.78;100.00;101872.41;1940844;74;31105;-70
2021/09/12 21:36:09;;;;;;;38.20;35.80;;;;;;;17.97;100.00;101870.94;1941048;74;31618;-71
2021/09/12 21:41:34;;;;;;;39.30;36.77;;;;;;;18.07;100.00;101870.16;1941053;74;33657;-73
2021/09/12 21:46:58;;;;;;;38.40;35.83;;;;;;;18.17;100.00;101875.59;1940812;74;31014;-71
2021/09/12 21:52:22;;;;;;;39.47;36.97;;;;;;;18.18;100.00;101876.44;1940758;74;31048;-70
2021/09/12 21:57:53;;;;;;;38.63;36.23;;;;;;;18.13;100.00;101870.33;1940998;74;31809;-70
2021/09/12 22:03:18;;;;;;;38.17;35.57;;;;;;;18.37;100.00;101868.71;1941017;74;31640;-72
2021/09/12 22:08:43;;;;;;;39.73;37.33;;;;;;;18.25;100.00;101880.22;1940956;74;31569;-71
2021/09/12 22:14:13;;;;;;;37.10;34.70;;;;;;;18.23;100.00;101879.72;1941084;74;31144;-70
2021/09/12 22:19:38;;;;;;;41.07;38.57;;;;;;;18.22;100.00;101880.86;1940798;74;31117;-70
2021/09/12 22:25:21;;;;;;;40.93;38.53;;;;;;;18.11;100.00;101893.70;2009654;71;30985;-71
2021/09/12 22:30:50;;;;;;;41.37;38.77;;;;;;;18.09;100.00;101904.44;1941007;74;33472;-71
2021/09/12 22:36:17;;;;;;;42.47;39.77;;;;;;;18.09;100.00;101905.84;1941058;74;31560;-74
2021/09/12 22:41:40;;;;;;;41.23;38.63;;;;;;;18.08;100.00;101907.55;1940890;74;31151;-70
2021/09/12 22:47:25;;;;;;;41.23;38.60;;;;;;;18.08;100.00;101911.20;2009686;71;31050;-71
2021/09/12 22:52:49;;;;;;;41.50;38.90;;;;;;;18.05;100.00;101903.39;1940851;74;31049;-71
2021/09/12 22:58:14;;;;;;;40.53;37.83;;;;;;;18.02;100.00;101906.80;1941087;74;31084;-70
2021/09/12 23:03:57;;;;;;;40.80;38.10;;;;;;;17.96;100.00;101908.63;2009606;71;30965;-70
2021/09/12 23:09:22;;;;;;;42.50;39.50;;;;;;;17.86;100.00;101910.20;1940972;74;31059;-70
2021/09/12 23:14:46;;;;;;;40.60;37.60;;;;;;;17.77;100.00;101901.65;1940820;74;31051;-71
2021/09/12 23:20:13;;;;;;;42.60;39.83;;;;;;;17.62;100.00;101913.17;1940948;74;31194;-71
2021/09/12 23:25:39;;;;;;;41.27;38.47;;;;;;;17.58;100.00;101912.11;1940795;74;31114;-72
2021/09/12 23:31:03;;;;;;;41.37;38.70;;;;;;;17.58;100.00;101920.55;1941038;74;31515;-71
2021/09/12 23:36:27;;;;;;;42.90;40.07;;;;;;;17.63;100.00;101917.63;1941019;74;31571;-71
2021/09/12 23:41:58;;;;;;;41.43;38.63;;;;;;;17.54;100.00;101919.45;1940813;74;31118;-70
2021/09/12 23:47:22;;;;;;;42.83;39.83;;;;;;;17.40;100.00;101923.61;1940860;74;31053;-71
2021/09/12 23:52:46;;;;;;;41.23;38.07;;;;;;;17.44;100.00;101926.63;1940984;74;31044;-71
2021/09/12 23:58:10;;;;;;;45.77;42.57;;;;;;;17.39;100.00;101926.14;1940891;74;31034;-71
